Wesley Hills, New York
Current Conditions -  °F | °C
As of 7:56 PM on Tuesday 25 Nov 2014 (Local Time) from KHPN Reporting Station
Scattered Clouds Scattered Clouds  
Wind Chill: 45°   Ceiling: Unl
Heat Index: 48°   Visibility: 10mi
Dew Point: 28°   Wind: 6mph
Humidity: 46%   Direction: 260°W
Pressure: 30.06"   Gusts: NA
Location:  41.1194°N, 74.0479°W
Report Text: KHPN 260056Z 26005KT 10SM SCT120 09/M02 A3006 RMK AO2 SLP181 T00891022
Loading
Personal Weather Stations






























Interactive Weather Map New forecast layout! Learn more

10-Day Weather Forecast

Advertisements
Track Severe Weather on mobile